BAW314S EGLL-LFPG
Flight info
| Callsign | BAW314S |
|---|---|
| Flight time | 0h 45m |
| Altitude | 25000 |
| Route | MODMI M185 MID UL612 BOGNA DCT HARDY UM605 BIBAX |
| Aircraft | A319/M-SDE3FGIJ1KRWXY/LB1 |
Departure
| Time | 2026-05-04 19:24 |
|---|---|
| Airport | London Heathrow Airport (EGLL) |
Arrival
| Time | 2026-05-04 20:10 |
|---|---|
| Airport | Charles de Gaulle International Airport (LFPG) |
| Time | Latitude | Longitude | Altitude | Speed | Heading |
|---|---|---|---|---|---|
| 2026-05-04 18:30 | 51.47232 | -0.48591 | 87 ft | 0 kts | 270° |
| 2026-05-04 19:15 | 51.47232 | -0.48563 | 89 ft | 3 kts | 266° |
| 2026-05-04 19:15 | 51.47234 | -0.48526 | 89 ft | 3 kts | 257° |
| 2026-05-04 19:15 | 51.47242 | -0.48492 | 87 ft | 3 kts | 230° |
| 2026-05-04 19:16 | 51.47256 | -0.48476 | 90 ft | 1 kts | 180° |
| 2026-05-04 19:16 | 51.47257 | -0.48476 | 89 ft | 0 kts | 179° |
| 2026-05-04 19:21 | 51.47256 | -0.48476 | 90 ft | 1 kts | 179° |
| 2026-05-04 19:21 | 51.47203 | -0.48476 | 87 ft | 16 kts | 180° |
| 2026-05-04 19:22 | 51.47057 | -0.48475 | 87 ft | 24 kts | 180° |
| 2026-05-04 19:22 | 51.46876 | -0.48473 | 87 ft | 26 kts | 179° |
| 2026-05-04 19:22 | 51.46757 | -0.48470 | 87 ft | 15 kts | 179° |
| 2026-05-04 19:22 | 51.46645 | -0.48467 | 87 ft | 17 kts | 179° |
| 2026-05-04 19:23 | 51.46598 | -0.48466 | 88 ft | 0 kts | 181° |
| 2026-05-04 19:23 | 51.46589 | -0.48467 | 88 ft | 5 kts | 181° |
| 2026-05-04 19:23 | 51.46526 | -0.48468 | 89 ft | 13 kts | 181° |
| 2026-05-04 19:23 | 51.46479 | -0.48360 | 89 ft | 17 kts | 86° |
| 2026-05-04 19:24 | 51.46476 | -0.47965 | 87 ft | 65 kts | 89° |
| 2026-05-04 19:24 | 51.46482 | -0.46915 | 91 ft | 121 kts | 89° |
| 2026-05-04 19:24 | 51.46488 | -0.45302 | 235 ft | 154 kts | 88° |
| 2026-05-04 19:24 | 51.46496 | -0.43617 | 928 ft | 151 kts | 86° |
| 2026-05-04 19:25 | 51.46480 | -0.41910 | 1505 ft | 162 kts | 96° |
| 2026-05-04 19:25 | 51.45922 | -0.40181 | 1813 ft | 190 kts | 122° |
| 2026-05-04 19:25 | 51.45078 | -0.38379 | 2115 ft | 217 kts | 131° |
| 2026-05-04 19:25 | 51.43654 | -0.37162 | 2534 ft | 250 kts | 160° |
| 2026-05-04 19:26 | 51.41941 | -0.36310 | 3371 ft | 261 kts | 161° |
| 2026-05-04 19:26 | 51.40140 | -0.35761 | 4333 ft | 270 kts | 181° |
| 2026-05-04 19:26 | 51.38324 | -0.36525 | 5331 ft | 273 kts | 206° |
| 2026-05-04 19:26 | 51.36627 | -0.37915 | 5804 ft | 274 kts | 208° |
| 2026-05-04 19:27 | 51.34944 | -0.39315 | 5972 ft | 273 kts | 208° |
| 2026-05-04 19:27 | 51.33262 | -0.40721 | 6005 ft | 273 kts | 207° |
| 2026-05-04 19:27 | 51.31591 | -0.42107 | 5989 ft | 274 kts | 207° |
| 2026-05-04 19:27 | 51.29880 | -0.43474 | 5997 ft | 275 kts | 206° |
| 2026-05-04 19:28 | 51.28157 | -0.44821 | 6010 ft | 275 kts | 205° |
| 2026-05-04 19:28 | 51.26435 | -0.46164 | 6002 ft | 276 kts | 206° |
| 2026-05-04 19:28 | 51.24719 | -0.47518 | 6005 ft | 275 kts | 206° |
| 2026-05-04 19:28 | 51.23001 | -0.48882 | 6010 ft | 275 kts | 206° |
| 2026-05-04 19:29 | 51.21259 | -0.50249 | 6577 ft | 280 kts | 206° |
| 2026-05-04 19:29 | 51.19513 | -0.51601 | 7580 ft | 279 kts | 205° |
| 2026-05-04 19:29 | 51.17764 | -0.52950 | 8549 ft | 280 kts | 205° |
| 2026-05-04 19:29 | 51.16002 | -0.54308 | 9509 ft | 283 kts | 205° |
| 2026-05-04 19:30 | 51.14231 | -0.55674 | 10327 ft | 289 kts | 205° |
| 2026-05-04 19:30 | 51.12352 | -0.57123 | 10646 ft | 312 kts | 205° |
| 2026-05-04 19:30 | 51.10363 | -0.58659 | 10985 ft | 331 kts | 205° |
| 2026-05-04 19:30 | 51.08172 | -0.59917 | 11605 ft | 339 kts | 192° |
| 2026-05-04 19:31 | 51.05814 | -0.60272 | 12286 ft | 344 kts | 177° |
| 2026-05-04 19:31 | 51.03443 | -0.59646 | 12977 ft | 349 kts | 161° |
| 2026-05-04 19:31 | 51.01289 | -0.58103 | 13641 ft | 352 kts | 147° |
| 2026-05-04 19:31 | 50.99184 | -0.55862 | 14324 ft | 356 kts | 145° |
| 2026-05-04 19:32 | 50.97124 | -0.53652 | 15017 ft | 358 kts | 145° |
| 2026-05-04 19:32 | 50.95052 | -0.51439 | 15725 ft | 360 kts | 145° |
| 2026-05-04 19:32 | 50.92968 | -0.49225 | 16439 ft | 362 kts | 146° |
| 2026-05-04 19:32 | 50.90885 | -0.47022 | 17109 ft | 364 kts | 146° |
| 2026-05-04 19:33 | 50.88758 | -0.44773 | 17756 ft | 368 kts | 146° |
| 2026-05-04 19:33 | 50.86621 | -0.42507 | 18408 ft | 371 kts | 146° |
| 2026-05-04 19:33 | 50.84467 | -0.40218 | 18998 ft | 374 kts | 146° |
| 2026-05-04 19:33 | 50.82306 | -0.37922 | 19605 ft | 376 kts | 146° |
| 2026-05-04 19:34 | 50.80127 | -0.35613 | 20223 ft | 378 kts | 146° |
| 2026-05-04 19:34 | 50.77957 | -0.33324 | 20827 ft | 381 kts | 147° |
| 2026-05-04 19:34 | 50.75751 | -0.31000 | 21421 ft | 383 kts | 147° |
| 2026-05-04 19:34 | 50.73526 | -0.28657 | 22018 ft | 385 kts | 147° |
| 2026-05-04 19:35 | 50.71431 | -0.25997 | 22574 ft | 389 kts | 137° |
| 2026-05-04 19:35 | 50.69665 | -0.22748 | 23134 ft | 393 kts | 127° |
| 2026-05-04 19:35 | 50.68291 | -0.18993 | 23643 ft | 398 kts | 117° |
| 2026-05-04 19:35 | 50.67092 | -0.15043 | 24105 ft | 401 kts | 118° |
| 2026-05-04 19:36 | 50.65881 | -0.11083 | 24540 ft | 403 kts | 118° |
| 2026-05-04 19:36 | 50.64656 | -0.07095 | 24900 ft | 405 kts | 118° |
| 2026-05-04 19:36 | 50.63426 | -0.03110 | 24992 ft | 400 kts | 118° |
| 2026-05-04 19:36 | 50.62217 | 0.00805 | 25001 ft | 396 kts | 119° |
| 2026-05-04 19:37 | 50.61015 | 0.04686 | 25013 ft | 395 kts | 119° |
| 2026-05-04 19:37 | 50.59806 | 0.08571 | 25013 ft | 394 kts | 119° |
| 2026-05-04 19:37 | 50.58618 | 0.12385 | 25013 ft | 394 kts | 119° |
| 2026-05-04 19:37 | 50.57408 | 0.16258 | 25013 ft | 394 kts | 119° |
| 2026-05-04 19:38 | 50.56198 | 0.20126 | 25010 ft | 394 kts | 119° |
| 2026-05-04 19:38 | 50.54992 | 0.23983 | 25010 ft | 394 kts | 119° |
| 2026-05-04 19:38 | 50.53782 | 0.27850 | 25010 ft | 394 kts | 119° |
| 2026-05-04 19:38 | 50.52572 | 0.31713 | 25010 ft | 394 kts | 119° |
| 2026-05-04 19:39 | 50.51361 | 0.35572 | 25010 ft | 394 kts | 119° |
| 2026-05-04 19:39 | 50.50148 | 0.39432 | 25007 ft | 394 kts | 119° |
| 2026-05-04 19:39 | 50.48935 | 0.43286 | 25006 ft | 394 kts | 119° |
| 2026-05-04 19:39 | 50.47615 | 0.47036 | 24995 ft | 391 kts | 126° |
| 2026-05-04 19:40 | 50.45921 | 0.50363 | 24995 ft | 389 kts | 136° |
| 2026-05-04 19:40 | 50.43902 | 0.53162 | 24996 ft | 387 kts | 143° |
| 2026-05-04 19:40 | 50.41826 | 0.55757 | 24996 ft | 387 kts | 143° |
| 2026-05-04 19:40 | 50.39724 | 0.58396 | 24998 ft | 387 kts | 143° |
| 2026-05-04 19:41 | 50.37624 | 0.61038 | 24999 ft | 387 kts | 143° |
| 2026-05-04 19:41 | 50.35529 | 0.63676 | 25000 ft | 387 kts | 143° |
| 2026-05-04 19:41 | 50.33430 | 0.66321 | 25001 ft | 387 kts | 142° |
| 2026-05-04 19:41 | 50.31327 | 0.68972 | 24999 ft | 387 kts | 142° |
| 2026-05-04 19:42 | 50.29225 | 0.71612 | 25001 ft | 387 kts | 143° |
| 2026-05-04 19:42 | 50.27122 | 0.74245 | 25001 ft | 387 kts | 143° |
| 2026-05-04 19:42 | 50.25018 | 0.76871 | 25001 ft | 387 kts | 143° |
| 2026-05-04 19:42 | 50.22916 | 0.79487 | 24967 ft | 386 kts | 143° |
| 2026-05-04 19:43 | 50.20743 | 0.81900 | 24505 ft | 382 kts | 152° |
| 2026-05-04 19:43 | 50.18411 | 0.83861 | 24029 ft | 380 kts | 153° |
| 2026-05-04 19:43 | 50.16088 | 0.85826 | 23547 ft | 379 kts | 152° |
| 2026-05-04 19:43 | 50.13775 | 0.87791 | 23006 ft | 377 kts | 152° |
| 2026-05-04 19:44 | 50.11483 | 0.89743 | 22499 ft | 374 kts | 152° |
| 2026-05-04 19:44 | 50.09206 | 0.91677 | 21978 ft | 371 kts | 152° |
| 2026-05-04 19:44 | 50.06970 | 0.93564 | 21451 ft | 369 kts | 152° |
| 2026-05-04 19:44 | 50.04714 | 0.95456 | 20938 ft | 367 kts | 152° |
| 2026-05-04 19:45 | 50.02481 | 0.97326 | 20433 ft | 364 kts | 152° |
| 2026-05-04 19:45 | 50.00254 | 0.99187 | 19916 ft | 362 kts | 152° |
| 2026-05-04 19:45 | 49.98049 | 1.01027 | 19409 ft | 359 kts | 152° |
| 2026-05-04 19:45 | 49.95855 | 1.02857 | 18926 ft | 356 kts | 152° |
| 2026-05-04 19:46 | 49.93680 | 1.04668 | 18416 ft | 354 kts | 152° |
| 2026-05-04 19:46 | 49.91518 | 1.06470 | 17864 ft | 352 kts | 152° |
| 2026-05-04 19:46 | 49.89373 | 1.08262 | 17320 ft | 349 kts | 152° |
| 2026-05-04 19:46 | 49.87240 | 1.10042 | 16772 ft | 346 kts | 152° |
| 2026-05-04 19:47 | 49.85128 | 1.11800 | 16229 ft | 344 kts | 152° |
| 2026-05-04 19:47 | 49.83056 | 1.13525 | 15706 ft | 342 kts | 151° |
| 2026-05-04 19:47 | 49.80963 | 1.15265 | 15214 ft | 339 kts | 151° |
| 2026-05-04 19:47 | 49.78889 | 1.16986 | 14707 ft | 337 kts | 150° |
| 2026-05-04 19:48 | 49.76825 | 1.18696 | 14194 ft | 336 kts | 150° |
| 2026-05-04 19:48 | 49.74770 | 1.20400 | 13643 ft | 335 kts | 150° |
| 2026-05-04 19:48 | 49.72720 | 1.22101 | 13128 ft | 333 kts | 150° |
| 2026-05-04 19:48 | 49.70689 | 1.23777 | 12619 ft | 330 kts | 150° |
| 2026-05-04 19:49 | 49.68666 | 1.25439 | 12088 ft | 328 kts | 150° |
| 2026-05-04 19:49 | 49.66656 | 1.27090 | 11601 ft | 326 kts | 150° |
| 2026-05-04 19:49 | 49.64659 | 1.28734 | 11090 ft | 324 kts | 150° |
| 2026-05-04 19:49 | 49.62700 | 1.30345 | 10607 ft | 323 kts | 150° |
| 2026-05-04 19:50 | 49.60725 | 1.31968 | 10140 ft | 321 kts | 150° |
| 2026-05-04 19:50 | 49.58759 | 1.33582 | 9963 ft | 316 kts | 150° |
| 2026-05-04 19:50 | 49.56876 | 1.35129 | 9967 ft | 299 kts | 150° |
| 2026-05-04 19:50 | 49.55072 | 1.36606 | 9974 ft | 290 kts | 150° |
| 2026-05-04 19:51 | 49.53296 | 1.38063 | 9973 ft | 289 kts | 150° |
| 2026-05-04 19:51 | 49.51525 | 1.39514 | 9980 ft | 289 kts | 150° |
| 2026-05-04 19:51 | 49.49757 | 1.40960 | 9974 ft | 287 kts | 150° |
| 2026-05-04 19:51 | 49.47997 | 1.42397 | 9975 ft | 286 kts | 150° |
| 2026-05-04 19:52 | 49.46239 | 1.43835 | 9976 ft | 286 kts | 150° |
| 2026-05-04 19:52 | 49.44477 | 1.45273 | 9975 ft | 286 kts | 150° |
| 2026-05-04 19:52 | 49.42719 | 1.46704 | 9974 ft | 286 kts | 150° |
| 2026-05-04 19:52 | 49.40962 | 1.48134 | 9972 ft | 286 kts | 150° |
| 2026-05-04 19:53 | 49.39207 | 1.49565 | 9969 ft | 286 kts | 150° |
| 2026-05-04 19:53 | 49.37531 | 1.51120 | 9972 ft | 285 kts | 143° |
| 2026-05-04 19:53 | 49.35902 | 1.52922 | 9971 ft | 285 kts | 142° |
| 2026-05-04 19:53 | 49.34310 | 1.54710 | 9970 ft | 285 kts | 142° |
| 2026-05-04 19:54 | 49.32734 | 1.56483 | 9971 ft | 284 kts | 142° |
| 2026-05-04 19:54 | 49.31135 | 1.58281 | 9971 ft | 284 kts | 142° |
| 2026-05-04 19:54 | 49.29539 | 1.60076 | 9970 ft | 285 kts | 142° |
| 2026-05-04 19:54 | 49.27950 | 1.61872 | 9968 ft | 284 kts | 142° |
| 2026-05-04 19:55 | 49.26367 | 1.63670 | 9965 ft | 284 kts | 142° |
| 2026-05-04 19:55 | 49.24777 | 1.65474 | 9962 ft | 284 kts | 142° |
| 2026-05-04 19:55 | 49.23214 | 1.67248 | 9961 ft | 284 kts | 142° |
| 2026-05-04 19:55 | 49.21611 | 1.69066 | 9960 ft | 283 kts | 142° |
| 2026-05-04 19:56 | 49.20038 | 1.70847 | 9697 ft | 281 kts | 142° |
| 2026-05-04 19:56 | 49.18466 | 1.72620 | 9325 ft | 280 kts | 142° |
| 2026-05-04 19:56 | 49.16921 | 1.74360 | 8964 ft | 279 kts | 142° |
| 2026-05-04 19:56 | 49.15343 | 1.76137 | 8597 ft | 277 kts | 142° |
| 2026-05-04 19:57 | 49.13839 | 1.77830 | 8367 ft | 264 kts | 142° |
| 2026-05-04 19:57 | 49.12387 | 1.79466 | 8004 ft | 257 kts | 142° |
| 2026-05-04 19:57 | 49.10961 | 1.81072 | 7602 ft | 253 kts | 142° |
| 2026-05-04 19:57 | 49.09552 | 1.82656 | 7200 ft | 250 kts | 142° |
| 2026-05-04 19:58 | 49.08163 | 1.84215 | 6808 ft | 246 kts | 142° |
| 2026-05-04 19:58 | 49.06792 | 1.85752 | 6421 ft | 243 kts | 142° |
| 2026-05-04 19:58 | 49.05444 | 1.87267 | 6009 ft | 239 kts | 142° |
| 2026-05-04 19:58 | 49.04113 | 1.88766 | 5595 ft | 236 kts | 142° |
| 2026-05-04 19:59 | 49.02804 | 1.90234 | 5190 ft | 232 kts | 142° |
| 2026-05-04 19:59 | 49.01611 | 1.91781 | 5009 ft | 222 kts | 127° |
| 2026-05-04 19:59 | 49.00917 | 1.93863 | 5012 ft | 221 kts | 105° |
| 2026-05-04 19:59 | 49.00476 | 1.96105 | 5010 ft | 221 kts | 105° |
| 2026-05-04 20:00 | 49.00044 | 1.98279 | 4994 ft | 202 kts | 105° |
| 2026-05-04 20:00 | 48.99651 | 2.00252 | 5003 ft | 194 kts | 105° |
| 2026-05-04 20:00 | 48.99290 | 2.02067 | 5017 ft | 166 kts | 105° |
| 2026-05-04 20:00 | 48.98982 | 2.03601 | 5001 ft | 140 kts | 105° |
| 2026-05-04 20:01 | 48.98707 | 2.04984 | 5007 ft | 135 kts | 105° |
| 2026-05-04 20:01 | 48.98437 | 2.06348 | 5012 ft | 134 kts | 105° |
| 2026-05-04 20:01 | 48.98169 | 2.07706 | 5012 ft | 134 kts | 105° |
| 2026-05-04 20:01 | 48.97880 | 2.09159 | 5037 ft | 154 kts | 105° |
| 2026-05-04 20:02 | 48.97550 | 2.10822 | 5035 ft | 173 kts | 105° |
| 2026-05-04 20:02 | 48.97191 | 2.12639 | 5017 ft | 184 kts | 105° |
| 2026-05-04 20:02 | 48.96971 | 2.14569 | 5003 ft | 187 kts | 89° |
| 2026-05-04 20:02 | 48.97079 | 2.16540 | 4996 ft | 187 kts | 84° |
| 2026-05-04 20:03 | 48.97187 | 2.18509 | 5001 ft | 187 kts | 85° |
| 2026-05-04 20:03 | 48.97292 | 2.20481 | 4945 ft | 184 kts | 85° |
| 2026-05-04 20:03 | 48.97394 | 2.22302 | 4765 ft | 167 kts | 85° |
| 2026-05-04 20:03 | 48.97489 | 2.23993 | 4570 ft | 153 kts | 85° |
| 2026-05-04 20:04 | 48.97576 | 2.25524 | 4367 ft | 137 kts | 85° |
| 2026-05-04 20:04 | 48.97657 | 2.26964 | 4195 ft | 134 kts | 84° |
| 2026-05-04 20:04 | 48.97736 | 2.28366 | 4014 ft | 133 kts | 84° |
| 2026-05-04 20:04 | 48.97815 | 2.29762 | 3844 ft | 132 kts | 84° |
| 2026-05-04 20:05 | 48.97893 | 2.31154 | 3665 ft | 132 kts | 84° |
| 2026-05-04 20:05 | 48.97971 | 2.32541 | 3486 ft | 132 kts | 84° |
| 2026-05-04 20:05 | 48.98048 | 2.33929 | 3313 ft | 131 kts | 84° |
| 2026-05-04 20:05 | 48.98125 | 2.35310 | 3137 ft | 131 kts | 84° |
| 2026-05-04 20:06 | 48.98202 | 2.36686 | 2960 ft | 131 kts | 84° |
| 2026-05-04 20:06 | 48.98278 | 2.38044 | 2785 ft | 130 kts | 84° |
| 2026-05-04 20:06 | 48.98355 | 2.39433 | 2609 ft | 130 kts | 84° |
| 2026-05-04 20:06 | 48.98430 | 2.40790 | 2438 ft | 130 kts | 83° |
| 2026-05-04 20:07 | 48.98506 | 2.42167 | 2258 ft | 130 kts | 84° |
| 2026-05-04 20:07 | 48.98581 | 2.43534 | 2085 ft | 130 kts | 83° |
| 2026-05-04 20:07 | 48.98657 | 2.44912 | 1911 ft | 130 kts | 83° |
| 2026-05-04 20:07 | 48.98732 | 2.46284 | 1737 ft | 130 kts | 84° |
| 2026-05-04 20:08 | 48.98807 | 2.47652 | 1564 ft | 130 kts | 84° |
| 2026-05-04 20:08 | 48.98882 | 2.49022 | 1385 ft | 130 kts | 84° |
| 2026-05-04 20:08 | 48.98956 | 2.50381 | 1200 ft | 130 kts | 84° |
| 2026-05-04 20:08 | 48.99031 | 2.51761 | 1021 ft | 130 kts | 84° |
| 2026-05-04 20:09 | 48.99105 | 2.53131 | 841 ft | 130 kts | 84° |
| 2026-05-04 20:09 | 48.99179 | 2.54501 | 663 ft | 130 kts | 84° |
| 2026-05-04 20:09 | 48.99254 | 2.55863 | 489 ft | 130 kts | 84° |
| 2026-05-04 20:09 | 48.99326 | 2.57225 | 357 ft | 121 kts | 85° |
| 2026-05-04 20:10 | 48.99381 | 2.58264 | 353 ft | 74 kts | 85° |
| 2026-05-04 20:10 | 48.99411 | 2.58809 | 356 ft | 39 kts | 85° |
| 2026-05-04 20:10 | 48.99456 | 2.59219 | 358 ft | 42 kts | 68° |
| 2026-05-04 20:10 | 48.99576 | 2.59614 | 359 ft | 23 kts | 64° |
| 2026-05-04 20:11 | 48.99639 | 2.59691 | 354 ft | 10 kts | 10° |
| 2026-05-04 20:11 | 48.99720 | 2.59691 | 362 ft | 14 kts | 351° |
| 2026-05-04 20:11 | 48.99828 | 2.59669 | 355 ft | 18 kts | 354° |
| 2026-05-04 20:11 | 48.99956 | 2.59649 | 354 ft | 19 kts | 342° |
| 2026-05-04 20:12 | 48.99982 | 2.59467 | 354 ft | 20 kts | 267° |
| 2026-05-04 20:12 | 48.99970 | 2.59242 | 354 ft | 23 kts | 265° |
| 2026-05-04 20:12 | 48.99957 | 2.58985 | 354 ft | 23 kts | 265° |
| 2026-05-04 20:12 | 48.99951 | 2.58865 | 354 ft | 8 kts | 265° |
| 2026-05-04 20:13 | 48.99946 | 2.58763 | 354 ft | 11 kts | 265° |
| 2026-05-04 20:13 | 48.99939 | 2.58627 | 354 ft | 15 kts | 265° |
| 2026-05-04 20:13 | 48.99930 | 2.58457 | 363 ft | 18 kts | 265° |
| 2026-05-04 20:13 | 48.99919 | 2.58253 | 354 ft | 21 kts | 265° |
| 2026-05-04 20:14 | 48.99906 | 2.58022 | 354 ft | 23 kts | 265° |
| 2026-05-04 20:14 | 48.99892 | 2.57764 | 354 ft | 26 kts | 265° |
| 2026-05-04 20:14 | 48.99876 | 2.57476 | 354 ft | 29 kts | 265° |
| 2026-05-04 20:14 | 48.99859 | 2.57159 | 354 ft | 26 kts | 265° |
| 2026-05-04 20:15 | 48.99931 | 2.57000 | 354 ft | 15 kts | 0° |
| 2026-05-04 20:15 | 49.00048 | 2.56989 | 354 ft | 18 kts | 355° |
| 2026-05-04 20:15 | 49.00115 | 2.56972 | 360 ft | 0 kts | 335° |
| 2026-05-04 20:15 | 49.00123 | 2.56967 | 360 ft | 2 kts | 335° |
| 2026-05-04 20:16 | 49.00132 | 2.56960 | 357 ft | 1 kts | 335° |
| 2026-05-04 20:16 | 49.00136 | 2.56957 | 354 ft | 0 kts | 335° |
| 2026-05-04 20:16 | 49.00141 | 2.56952 | 354 ft | 2 kts | 327° |
| 2026-05-04 20:16 | 49.00155 | 2.56921 | 357 ft | 5 kts | 313° |
| 2026-05-04 20:17 | 49.00196 | 2.56901 | 354 ft | 8 kts | 343° |
| 2026-05-04 20:17 | 49.00198 | 2.56900 | 354 ft | 0 kts | 343° |